createdAt,value
2022-09-29T00:01:25.706Z,2.70
2022-09-29T00:03:53.748Z,2.73
2022-09-29T00:06:21.594Z,2.77
2022-09-29T00:08:49.703Z,2.30
2022-09-29T00:11:20.250Z,2.30
2022-09-29T00:13:48.739Z,2.30
2022-09-29T00:16:18.502Z,2.47
2022-09-29T00:18:46.521Z,2.33
2022-09-29T00:21:16.243Z,2.90
2022-09-29T00:23:44.210Z,2.77
2022-09-29T00:26:14.054Z,2.53
2022-09-29T00:28:47.012Z,2.80
2022-09-29T00:31:16.004Z,2.80
2022-09-29T00:33:45.500Z,2.90
2022-09-29T00:36:15.903Z,2.90
2022-09-29T00:38:45.231Z,3.00
2022-09-29T00:41:18.098Z,2.97
2022-09-29T00:43:53.111Z,2.67
2022-09-29T00:46:27.976Z,3.07
2022-09-29T00:49:01.115Z,3.40
2022-09-29T00:51:30.186Z,3.03
2022-09-29T00:53:59.818Z,3.40
2022-09-29T00:56:28.769Z,3.13
2022-09-29T00:59:00.607Z,3.73
2022-09-29T01:01:31.787Z,3.33
2022-09-29T01:04:05.098Z,3.30
2022-09-29T01:06:37.675Z,3.50
2022-09-29T01:09:07.888Z,3.20
2022-09-29T01:11:35.924Z,3.53
2022-09-29T01:14:07.972Z,3.53
2022-09-29T01:16:39.519Z,3.80
2022-09-29T01:19:11.876Z,3.80
2022-09-29T01:21:52.492Z,3.87
2022-09-29T01:24:57.748Z,4.50
2022-09-29T01:27:41.681Z,4.33
2022-09-29T01:30:20.955Z,4.30
2022-09-29T01:33:28.135Z,4.50
2022-09-29T01:36:07.291Z,4.60
2022-09-29T01:38:50.061Z,4.80
2022-09-29T01:41:25.117Z,7.37
2022-09-29T01:43:58.182Z,10.03
2022-09-29T01:46:30.332Z,10.73
2022-09-29T01:49:02.080Z,16.07
2022-09-29T01:51:39.782Z,13.10
2022-09-29T01:54:14.304Z,13.40
2022-09-29T01:56:49.462Z,14.17
2022-09-29T01:59:23.406Z,15.30
2022-09-29T02:02:00.074Z,13.43
2022-09-29T02:04:34.468Z,16.20
2022-09-29T02:07:12.310Z,15.97
2022-09-29T02:09:43.579Z,15.97
2022-09-29T02:12:15.330Z,14.80
2022-09-29T02:14:46.550Z,14.97
2022-09-29T02:17:20.990Z,15.10
2022-09-29T02:19:52.165Z,14.40
2022-09-29T02:22:20.903Z,15.97
2022-09-29T02:24:53.108Z,16.70
2022-09-29T02:27:22.185Z,19.63
2022-09-29T02:29:50.355Z,24.63
2022-09-29T02:32:20.028Z,23.07
2022-09-29T02:34:53.320Z,21.77
2022-09-29T02:37:35.535Z,18.67
2022-09-29T02:40:16.079Z,18.93
2022-09-29T02:42:55.846Z,19.57
2022-09-29T02:45:34.862Z,20.60
2022-09-29T02:48:17.616Z,19.70
2022-09-29T02:50:59.190Z,19.97
2022-09-29T02:53:40.821Z,19.47
2022-09-29T02:56:20.085Z,22.00
2022-09-29T02:58:53.195Z,23.13
2022-09-29T03:01:21.212Z,20.60
2022-09-29T03:03:49.173Z,19.53
2022-09-29T03:06:21.340Z,19.97
2022-09-29T03:08:49.179Z,24.13
2022-09-29T03:11:17.143Z,21.50
2022-09-29T03:13:45.087Z,24.87
2022-09-29T03:16:13.037Z,19.37
2022-09-29T03:18:40.940Z,21.40
2022-09-29T03:21:08.897Z,22.33
2022-09-29T03:23:38.182Z,20.07
2022-09-29T03:26:06.343Z,18.93
2022-09-29T03:28:34.723Z,19.33
2022-09-29T03:31:07.148Z,22.60
2022-09-29T03:33:35.727Z,22.23
2022-09-29T03:36:03.969Z,20.43
2022-09-29T03:38:31.896Z,20.23
2022-09-29T03:41:01.357Z,19.97
2022-09-29T03:43:29.343Z,21.87
2022-09-29T03:45:59.134Z,19.70
2022-09-29T03:48:31.258Z,18.43
2022-09-29T03:50:59.247Z,20.20
2022-09-29T03:53:27.156Z,20.10
2022-09-29T03:55:55.147Z,18.53
2022-09-29T03:58:24.543Z,18.37
2022-09-29T04:00:52.578Z,18.43
2022-09-29T04:03:20.560Z,18.53
2022-09-29T04:05:49.586Z,17.30
2022-09-29T04:08:17.849Z,15.00
2022-09-29T04:10:47.650Z,16.37
2022-09-29T04:13:19.775Z,16.50
2022-09-29T04:15:49.838Z,15.40
2022-09-29T04:18:18.175Z,16.07
2022-09-29T04:20:46.028Z,17.27
2022-09-29T04:23:13.954Z,15.80
2022-09-29T04:25:41.867Z,15.73
2022-09-29T04:28:09.794Z,15.23
2022-09-29T04:30:37.677Z,15.73
2022-09-29T04:33:06.958Z,16.47
2022-09-29T04:35:36.958Z,13.97
2022-09-29T04:38:05.558Z,13.67
2022-09-29T04:40:33.571Z,14.20
2022-09-29T04:43:01.627Z,14.60
2022-09-29T04:45:29.857Z,14.07
2022-09-29T04:47:57.739Z,15.30
2022-09-29T04:50:27.167Z,12.40
2022-09-29T04:52:55.040Z,14.90
2022-09-29T04:55:22.908Z,11.03
2022-09-29T04:57:50.822Z,10.90
2022-09-29T05:00:18.971Z,9.53
2022-09-29T05:02:49.772Z,9.70
2022-09-29T05:05:18.647Z,11.10
2022-09-29T05:07:48.557Z,10.60
2022-09-29T05:10:16.662Z,9.07
2022-09-29T05:12:49.960Z,9.83
2022-09-29T05:15:20.081Z,9.50
2022-09-29T05:17:51.852Z,9.53
2022-09-29T05:20:19.953Z,9.63
2022-09-29T05:22:49.162Z,8.30
2022-09-29T05:25:17.300Z,8.80
2022-09-29T05:27:45.143Z,8.67
2022-09-29T05:30:13.278Z,8.90
2022-09-29T05:32:41.182Z,8.57
2022-09-29T05:35:10.189Z,7.80
2022-09-29T05:37:38.089Z,7.33
2022-09-29T05:40:08.815Z,7.70
2022-09-29T05:42:36.767Z,7.93
2022-09-29T05:45:05.427Z,8.20
2022-09-29T05:47:33.302Z,8.30
2022-09-29T05:50:01.255Z,7.57
2022-09-29T05:52:29.131Z,8.17
2022-09-29T05:54:57.025Z,8.90
2022-09-29T05:57:28.709Z,9.07
2022-09-29T05:59:56.711Z,8.03
2022-09-29T06:02:24.798Z,9.23
2022-09-29T06:04:52.774Z,9.43
2022-09-29T06:07:20.659Z,9.20
2022-09-29T06:09:48.587Z,9.60
2022-09-29T06:12:19.926Z,8.83
2022-09-29T06:14:51.090Z,9.40
2022-09-29T06:17:19.064Z,9.47
2022-09-29T06:19:46.950Z,9.43
2022-09-29T06:22:14.891Z,9.60
2022-09-29T06:24:42.744Z,9.57
2022-09-29T06:27:11.035Z,9.77
2022-09-29T06:29:38.966Z,9.87
2022-09-29T06:32:08.441Z,10.37
2022-09-29T06:34:58.592Z,10.53
2022-09-29T06:37:35.005Z,9.43
2022-09-29T06:40:05.745Z,10.23
2022-09-29T06:42:36.830Z,9.30
2022-09-29T06:45:05.000Z,9.67
2022-09-29T06:47:34.375Z,9.70
2022-09-29T06:50:02.725Z,9.77
2022-09-29T06:52:30.572Z,10.33
2022-09-29T06:54:58.510Z,10.37
2022-09-29T06:57:26.839Z,9.87
2022-09-29T06:59:54.800Z,9.33
2022-09-29T07:02:22.710Z,10.23
2022-09-29T07:04:51.972Z,9.77
2022-09-29T07:07:19.938Z,9.93
2022-09-29T07:09:52.082Z,10.80
2022-09-29T07:12:20.331Z,10.07
2022-09-29T07:14:48.189Z,9.83
2022-09-29T07:17:17.730Z,10.10
2022-09-29T07:19:45.568Z,10.87
2022-09-29T07:22:14.873Z,10.20
2022-09-29T07:24:43.501Z,9.57
2022-09-29T07:27:12.396Z,9.60
2022-09-29T07:29:40.209Z,9.70
2022-09-29T07:32:15.401Z,9.33
2022-09-29T07:34:50.291Z,8.43
2022-09-29T07:37:19.499Z,9.00
2022-09-29T07:39:47.372Z,8.20
2022-09-29T07:42:15.216Z,8.80
2022-09-29T07:44:43.093Z,8.57
2022-09-29T07:47:11.087Z,8.23
2022-09-29T07:49:39.243Z,8.07
2022-09-29T07:52:07.297Z,8.63
2022-09-29T07:54:36.622Z,8.37
2022-09-29T07:57:04.471Z,8.23
2022-09-29T07:59:32.519Z,8.23
2022-09-29T08:02:00.420Z,8.67
2022-09-29T08:04:28.260Z,9.43
2022-09-29T08:06:56.632Z,8.70
2022-09-29T08:09:36.586Z,8.17
2022-09-29T08:12:09.122Z,8.73
2022-09-29T08:14:41.968Z,7.83
2022-09-29T08:17:11.892Z,7.53
2022-09-29T08:19:39.751Z,7.33
2022-09-29T08:22:08.093Z,7.90
2022-09-29T08:24:36.933Z,7.47
2022-09-29T08:27:17.221Z,8.23
2022-09-29T08:29:48.375Z,7.47
2022-09-29T08:32:17.269Z,7.80
2022-09-29T08:34:45.163Z,7.40
2022-09-29T08:37:13.085Z,7.90
2022-09-29T08:39:41.005Z,7.00
2022-09-29T08:42:22.267Z,7.60
2022-09-29T08:45:09.707Z,7.67
2022-09-29T08:47:47.894Z,7.90
2022-09-29T08:50:22.696Z,6.63
2022-09-29T08:52:55.656Z,6.47
2022-09-29T08:55:29.540Z,6.63
2022-09-29T08:58:00.497Z,6.60
2022-09-29T09:00:40.508Z,6.53
2022-09-29T09:03:39.356Z,6.40
2022-09-29T09:09:18.587Z,6.77
2022-09-29T09:12:03.305Z,7.07
2022-09-29T09:14:47.740Z,7.80
2022-09-29T09:17:31.633Z,6.90
2022-09-29T09:20:10.529Z,6.03
2022-09-29T09:22:51.669Z,5.70
2022-09-29T09:25:24.906Z,6.70
2022-09-29T09:28:03.712Z,6.47
2022-09-29T09:30:43.932Z,6.50
2022-09-29T09:33:32.020Z,5.77
2022-09-29T09:36:05.883Z,5.53
2022-09-29T09:38:46.442Z,4.03
2022-09-29T09:41:17.890Z,5.73
2022-09-29T09:43:50.125Z,6.37
2022-09-29T09:46:24.474Z,6.00
2022-09-29T09:49:01.883Z,5.70
2022-09-29T09:51:40.880Z,4.67
2022-09-29T09:54:13.296Z,5.47
2022-09-29T09:57:04.692Z,6.13
2022-09-29T09:59:46.428Z,5.63
2022-09-29T10:02:20.296Z,5.77
2022-09-29T10:04:52.786Z,5.57
2022-09-29T10:07:22.316Z,5.57
2022-09-29T10:09:50.414Z,5.40
2022-09-29T10:12:22.882Z,6.03
2022-09-29T10:14:55.885Z,6.53
2022-09-29T10:17:28.761Z,5.80
2022-09-29T10:20:00.832Z,5.67
2022-09-29T10:22:30.232Z,5.33
2022-09-29T10:25:09.042Z,6.10
2022-09-29T10:27:45.330Z,4.87
2022-09-29T10:30:22.628Z,4.90
2022-09-29T10:32:54.806Z,4.90
2022-09-29T10:35:28.604Z,5.40
2022-09-29T10:38:03.283Z,4.90
2022-09-29T10:40:31.357Z,4.53
2022-09-29T10:43:00.431Z,4.80
2022-09-29T10:45:30.170Z,4.53
2022-09-29T10:48:14.614Z,5.27
2022-09-29T10:50:52.999Z,5.27
2022-09-29T10:53:35.985Z,5.03
2022-09-29T10:56:16.512Z,5.10
2022-09-29T10:59:00.457Z,5.27
2022-09-29T11:01:33.849Z,4.87
2022-09-29T11:04:05.357Z,4.40
2022-09-29T11:06:40.448Z,4.23
2022-09-29T11:09:29.728Z,3.53
2022-09-29T11:12:02.291Z,3.70
2022-09-29T11:14:33.577Z,4.30
2022-09-29T11:17:02.944Z,3.60
2022-09-29T11:19:32.210Z,3.77
2022-09-29T11:22:25.954Z,3.30
2022-09-29T11:25:15.186Z,3.50
2022-09-29T11:28:02.147Z,3.60
2022-09-29T11:30:39.545Z,3.33
2022-09-29T11:33:21.135Z,2.63
2022-09-29T11:35:55.943Z,2.10
2022-09-29T11:38:43.246Z,2.23
2022-09-29T11:41:32.034Z,2.17
2022-09-29T11:44:10.993Z,2.23
2022-09-29T11:46:52.978Z,2.03
2022-09-29T11:49:44.591Z,2.03
2022-09-29T11:52:33.695Z,2.00
2022-09-29T11:55:20.986Z,1.83
2022-09-29T11:58:01.092Z,1.70
2022-09-29T12:00:46.368Z,2.07
2022-09-29T12:03:24.460Z,1.80
2022-09-29T12:06:02.853Z,1.80
2022-09-29T12:08:43.626Z,1.70
2022-09-29T12:11:44.524Z,1.80
2022-09-29T12:14:17.364Z,1.90
2022-09-29T12:16:54.241Z,2.30
2022-09-29T12:19:28.921Z,2.47
2022-09-29T12:22:01.266Z,2.40
2022-09-29T12:24:36.321Z,1.90
2022-09-29T12:27:09.444Z,2.10
2022-09-29T12:29:40.849Z,2.10
2022-09-29T12:32:19.406Z,1.80
2022-09-29T12:34:51.919Z,1.70
2022-09-29T12:37:27.278Z,1.50
2022-09-29T12:40:02.677Z,1.40
2022-09-29T12:42:46.230Z,1.37
2022-09-29T12:45:23.478Z,1.30
2022-09-29T12:48:16.457Z,1.40
2022-09-29T12:50:52.346Z,1.40
2022-09-29T12:53:25.040Z,1.47
2022-09-29T12:56:00.022Z,1.30
2022-09-29T12:58:37.267Z,1.37
2022-09-29T13:01:21.118Z,1.60
2022-09-29T13:04:22.659Z,1.80
2022-09-29T13:07:21.832Z,1.50
2022-09-29T13:10:15.757Z,1.60
2022-09-29T13:13:05.745Z,1.80
2022-09-29T13:15:52.680Z,1.67
2022-09-29T13:18:53.971Z,1.60
2022-09-29T13:21:40.705Z,1.70
2022-09-29T13:24:32.134Z,1.60
2022-09-29T13:27:16.858Z,1.50
2022-09-29T13:29:49.499Z,1.80
2022-09-29T13:32:19.783Z,1.60
2022-09-29T13:34:53.563Z,1.70
2022-09-29T13:37:24.659Z,1.60
2022-09-29T13:40:01.314Z,1.50
2022-09-29T13:42:43.532Z,1.73
2022-09-29T13:45:44.572Z,1.50
2022-09-29T13:48:50.619Z,1.53
2022-09-29T13:51:30.921Z,1.60
2022-09-29T13:54:39.304Z,1.90
2022-09-29T13:57:26.599Z,2.10
2022-09-29T14:00:22.041Z,2.10
2022-09-29T14:03:25.288Z,2.53
2022-09-29T14:05:58.698Z,2.20
2022-09-29T14:08:31.650Z,2.20
2022-09-29T14:11:09.371Z,1.80
2022-09-29T14:13:44.865Z,1.70
2022-09-29T14:16:48.479Z,1.80
2022-09-29T14:19:39.734Z,2.00
2022-09-29T14:22:46.195Z,1.80
2022-09-29T14:25:36.305Z,1.63
2022-09-29T14:28:08.522Z,1.80
2022-09-29T14:30:43.951Z,1.60
2022-09-29T14:33:16.935Z,1.60
2022-09-29T14:35:49.519Z,1.60
2022-09-29T14:38:20.939Z,1.50
2022-09-29T14:40:58.324Z,1.57
2022-09-29T14:43:37.571Z,1.50
2022-09-29T14:46:49.799Z,1.60
2022-09-29T14:49:50.654Z,1.60
2022-09-29T14:52:30.470Z,1.70
2022-09-29T14:55:06.200Z,1.47
2022-09-29T14:57:52.737Z,1.50
2022-09-29T15:00:23.118Z,1.70
2022-09-29T15:03:05.032Z,1.60
2022-09-29T15:05:41.890Z,1.70
2022-09-29T15:08:28.036Z,1.70
2022-09-29T15:10:58.153Z,1.70
2022-09-29T15:13:31.518Z,1.70
2022-09-29T15:16:05.135Z,1.73
2022-09-29T15:19:09.815Z,1.60
2022-09-29T15:21:43.605Z,1.80
2022-09-29T15:24:31.067Z,1.80
2022-09-29T15:27:02.808Z,1.80
2022-09-29T15:29:32.637Z,1.80
2022-09-29T15:32:00.904Z,1.60
2022-09-29T15:34:30.529Z,1.80
2022-09-29T15:36:59.667Z,2.00
2022-09-29T15:39:45.141Z,1.67
2022-09-29T15:42:22.296Z,1.70
2022-09-29T15:45:00.725Z,1.60
2022-09-29T15:47:38.798Z,1.80
2022-09-29T15:50:18.451Z,1.70
2022-09-29T15:52:46.917Z,1.70
2022-09-29T15:55:19.290Z,1.77
2022-09-29T15:57:53.730Z,1.50
2022-09-29T16:00:45.814Z,1.50
2022-09-29T16:03:19.861Z,1.57
2022-09-29T16:05:58.663Z,1.60
2022-09-29T16:08:29.502Z,1.70
2022-09-29T16:10:59.951Z,1.70
2022-09-29T16:13:30.484Z,1.77
2022-09-29T16:16:04.854Z,1.80
2022-09-29T16:18:53.032Z,1.80
2022-09-29T16:21:26.530Z,1.80
2022-09-29T16:24:06.940Z,1.77
2022-09-29T16:26:37.433Z,1.70
2022-09-29T16:29:23.567Z,1.63
2022-09-29T16:32:01.820Z,1.70
2022-09-29T16:34:33.288Z,1.63
2022-09-29T16:37:03.844Z,1.60
2022-09-29T16:39:42.142Z,1.80
2022-09-29T16:42:21.920Z,1.60
2022-09-29T16:44:53.469Z,1.70
2022-09-29T16:47:32.574Z,1.60
2022-09-29T16:50:04.922Z,1.80
2022-09-29T16:52:42.398Z,1.77
2022-09-29T16:55:18.755Z,1.80
2022-09-29T16:57:53.013Z,1.90
2022-09-29T17:00:22.398Z,1.90
2022-09-29T17:02:55.597Z,1.80
2022-09-29T17:05:25.053Z,1.70
2022-09-29T17:08:01.401Z,1.80
2022-09-29T17:10:30.136Z,1.83
2022-09-29T17:12:58.685Z,1.80
2022-09-29T17:15:27.790Z,1.63
2022-09-29T17:17:57.201Z,1.70
2022-09-29T17:20:30.254Z,1.70
2022-09-29T17:23:00.037Z,1.70
2022-09-29T17:25:28.555Z,1.60
2022-09-29T17:28:14.826Z,1.67
2022-09-29T17:30:44.521Z,1.60
2022-09-29T17:33:16.435Z,1.80
2022-09-29T17:35:48.343Z,1.63
2022-09-29T17:38:19.783Z,1.67
2022-09-29T17:40:52.323Z,1.40
2022-09-29T17:43:21.244Z,1.53
2022-09-29T17:45:49.143Z,1.50
2022-09-29T17:48:20.168Z,1.50
2022-09-29T17:50:49.623Z,1.40
2022-09-29T17:53:19.173Z,1.43
2022-09-29T17:55:49.625Z,1.40
2022-09-29T17:58:20.553Z,1.40
2022-09-29T18:00:50.449Z,1.40
2022-09-29T18:03:22.033Z,1.30
2022-09-29T18:05:56.227Z,1.20
2022-09-29T18:08:29.326Z,1.30
2022-09-29T18:10:58.979Z,1.30
2022-09-29T18:13:28.941Z,1.33
2022-09-29T18:15:57.564Z,1.40
2022-09-29T18:18:27.142Z,1.40
2022-09-29T18:20:55.155Z,1.33
2022-09-29T18:23:24.238Z,1.30
2022-09-29T18:25:53.418Z,1.37
2022-09-29T18:28:21.879Z,1.07
2022-09-29T18:30:52.303Z,1.10
2022-09-29T18:33:21.335Z,1.10
2022-09-29T18:35:55.578Z,1.00
2022-09-29T18:38:25.063Z,1.00
2022-09-29T18:40:54.111Z,1.00
2022-09-29T18:43:25.598Z,1.00
2022-09-29T18:45:55.034Z,0.80
2022-09-29T18:48:23.877Z,0.90
2022-09-29T18:50:56.781Z,1.00
2022-09-29T18:53:28.337Z,0.90
2022-09-29T18:55:58.514Z,0.80
2022-09-29T18:58:27.019Z,0.90
2022-09-29T19:00:56.597Z,0.70
2022-09-29T19:03:26.691Z,0.83
2022-09-29T19:05:56.550Z,0.80
2022-09-29T19:08:25.147Z,0.80
2022-09-29T19:10:55.047Z,0.80
2022-09-29T19:13:23.485Z,0.73
2022-09-29T19:15:51.885Z,0.80
2022-09-29T19:18:24.013Z,0.80
2022-09-29T19:20:54.192Z,0.70
2022-09-29T19:23:24.018Z,0.80
2022-09-29T19:25:53.163Z,0.70
2022-09-29T19:28:23.064Z,0.80
2022-09-29T19:30:51.028Z,0.90
2022-09-29T19:33:22.800Z,0.80
2022-09-29T19:35:54.348Z,0.70
2022-09-29T19:38:24.292Z,0.63
2022-09-29T19:40:52.631Z,0.80
2022-09-29T19:43:21.540Z,0.90
2022-09-29T19:45:49.775Z,0.80
2022-09-29T19:48:19.841Z,0.70
2022-09-29T19:51:06.157Z,0.70
2022-09-29T19:53:36.391Z,0.70
2022-09-29T19:56:11.062Z,0.80
2022-09-29T19:58:41.175Z,0.70
2022-09-29T20:01:11.779Z,0.80
2022-09-29T20:03:39.838Z,0.80
2022-09-29T20:06:09.069Z,0.80
2022-09-29T20:08:39.190Z,0.80
2022-09-29T20:11:09.439Z,0.70
2022-09-29T20:13:38.872Z,0.90
2022-09-29T20:16:07.405Z,0.87
2022-09-29T20:18:37.353Z,0.90
2022-09-29T20:21:07.494Z,0.90
2022-09-29T20:23:35.545Z,0.93
2022-09-29T20:26:09.032Z,0.70
2022-09-29T20:28:37.817Z,0.80
2022-09-29T20:31:07.753Z,0.80
2022-09-29T20:33:36.347Z,0.70
2022-09-29T20:36:06.075Z,0.90
2022-09-29T20:38:35.912Z,0.80
2022-09-29T20:41:06.849Z,0.90
2022-09-29T20:43:35.709Z,0.80
2022-09-29T20:46:07.431Z,0.80
2022-09-29T20:48:37.921Z,0.80
2022-09-29T20:51:07.962Z,0.90
2022-09-29T20:53:40.661Z,0.87
2022-09-29T20:56:12.275Z,0.90
2022-09-29T20:58:44.125Z,0.70
2022-09-29T21:01:15.594Z,0.80
2022-09-29T21:03:43.806Z,0.80
2022-09-29T21:06:12.153Z,0.80
2022-09-29T21:08:41.535Z,0.80
2022-09-29T21:11:11.266Z,1.00
2022-09-29T21:13:39.544Z,0.90
2022-09-29T21:16:09.302Z,0.80
2022-09-29T21:18:37.170Z,0.83
2022-09-29T21:21:08.221Z,1.00
2022-09-29T21:23:37.778Z,1.10
2022-09-29T21:26:08.083Z,1.10
2022-09-29T21:28:38.508Z,0.80
2022-09-29T21:31:08.090Z,0.90
2022-09-29T21:33:37.026Z,1.00
2022-09-29T21:36:06.744Z,1.07
2022-09-29T21:38:36.559Z,1.07
2022-09-29T21:41:06.294Z,0.83
2022-09-29T21:43:35.343Z,0.87
2022-09-29T21:46:06.965Z,0.80
2022-09-29T21:48:36.414Z,0.73
2022-09-29T21:51:05.723Z,0.90
2022-09-29T21:53:34.583Z,0.90
2022-09-29T21:56:03.576Z,0.87
2022-09-29T21:58:31.714Z,0.80
2022-09-29T22:00:59.934Z,0.80
2022-09-29T22:03:32.915Z,0.83
2022-09-29T22:06:01.776Z,0.80
2022-09-29T22:08:30.598Z,0.70
2022-09-29T22:10:59.628Z,0.93
2022-09-29T22:13:27.798Z,0.90
2022-09-29T22:16:04.239Z,0.90
2022-09-29T22:18:41.577Z,0.80
2022-09-29T22:21:11.777Z,0.90
2022-09-29T22:23:39.728Z,0.90
2022-09-29T22:26:12.391Z,1.07
2022-09-29T22:28:41.282Z,0.90
2022-09-29T22:31:10.199Z,1.00
2022-09-29T22:33:41.252Z,1.03
2022-09-29T22:36:09.500Z,1.00
2022-09-29T22:38:42.368Z,1.00
2022-09-29T22:41:12.195Z,1.07
2022-09-29T22:43:40.231Z,0.93
2022-09-29T22:46:09.340Z,1.00
2022-09-29T22:48:37.475Z,0.90
2022-09-29T22:51:07.937Z,1.17
2022-09-29T22:53:35.807Z,1.00
2022-09-29T22:56:10.482Z,1.00
2022-09-29T22:58:38.317Z,0.90
2022-09-29T23:01:08.778Z,1.20
2022-09-29T23:03:37.453Z,1.07
2022-09-29T23:06:07.214Z,1.07
2022-09-29T23:08:36.565Z,0.90
2022-09-29T23:11:07.518Z,0.90
2022-09-29T23:13:36.837Z,1.10
2022-09-29T23:16:11.053Z,1.00
2022-09-29T23:18:44.577Z,0.90
2022-09-29T23:21:17.823Z,1.00
2022-09-29T23:23:46.234Z,1.00
2022-09-29T23:26:14.878Z,0.90
2022-09-29T23:28:42.751Z,0.90
2022-09-29T23:31:12.577Z,1.00
2022-09-29T23:33:40.497Z,1.00
2022-09-29T23:36:10.192Z,1.00
2022-09-29T23:38:58.209Z,1.10
2022-09-29T23:41:27.163Z,0.90
2022-09-29T23:43:56.649Z,1.00
2022-09-29T23:46:25.731Z,0.87
2022-09-29T23:48:53.611Z,1.03
2022-09-29T23:51:21.498Z,0.90
2022-09-29T23:53:50.994Z,1.20
2022-09-29T23:56:18.915Z,1.00
2022-09-29T23:58:46.824Z,0.90
